Terminal Aerodrome Forecast
Issued by NWS

Home | Current Version | Previous Version | Text Only | Print | Product List | Glossary On
Versions: 1 2 3 4 5 6 7 8 9 10 11 12 13
244
FTUS43 KJKL 231120
TAFSJS
TAF
KSJS 231120Z 2312/2412 00000KT 6SM BR FEW004 SCT050
     FM231300 25002KT P6SM FEW025 SCT050=

USA.gov is the U.S. government's official web portal to all federal, state and local government web resources and services.